sensor_id;sensor_type;location;lat;lon;timestamp;temperature;humidity
4934;DHT22;2482;49.154;8.254;2022-08-19T00:02:03;20.40;99.90
4934;DHT22;2482;49.154;8.254;2022-08-19T00:04:34;20.30;99.90
4934;DHT22;2482;49.154;8.254;2022-08-19T00:07:05;20.20;99.90
4934;DHT22;2482;49.154;8.254;2022-08-19T00:09:32;20.20;99.90
4934;DHT22;2482;49.154;8.254;2022-08-19T00:12:00;20.20;99.90
4934;DHT22;2482;49.154;8.254;2022-08-19T00:14:28;20.30;99.90
4934;DHT22;2482;49.154;8.254;2022-08-19T00:16:58;20.20;99.90
4934;DHT22;2482;49.154;8.254;2022-08-19T00:19:27;20.10;99.90
4934;DHT22;2482;49.154;8.254;2022-08-19T00:21:54;20.20;99.90
4934;DHT22;2482;49.154;8.254;2022-08-19T00:24:22;20.30;99.90
4934;DHT22;2482;49.154;8.254;2022-08-19T00:26:50;20.40;99.90
4934;DHT22;2482;49.154;8.254;2022-08-19T00:29:19;20.60;99.90
4934;DHT22;2482;49.154;8.254;2022-08-19T00:31:47;20.60;99.90
4934;DHT22;2482;49.154;8.254;2022-08-19T00:34:16;20.70;99.90
4934;DHT22;2482;49.154;8.254;2022-08-19T00:36:43;20.60;99.90
4934;DHT22;2482;49.154;8.254;2022-08-19T00:39:12;20.60;99.90
4934;DHT22;2482;49.154;8.254;2022-08-19T00:41:41;20.60;99.90
4934;DHT22;2482;49.154;8.254;2022-08-19T00:44:25;20.60;99.90
4934;DHT22;2482;49.154;8.254;2022-08-19T00:46:56;20.60;99.90
4934;DHT22;2482;49.154;8.254;2022-08-19T00:49:36;20.60;99.90
4934;DHT22;2482;49.154;8.254;2022-08-19T00:52:31;20.60;99.90
4934;DHT22;2482;49.154;8.254;2022-08-19T00:55:00;20.70;99.90
4934;DHT22;2482;49.154;8.254;2022-08-19T00:57:31;20.70;99.90
4934;DHT22;2482;49.154;8.254;2022-08-19T01:00:03;20.70;99.90
4934;DHT22;2482;49.154;8.254;2022-08-19T01:02:34;20.60;99.90
4934;DHT22;2482;49.154;8.254;2022-08-19T01:05:05;20.50;99.90
4934;DHT22;2482;49.154;8.254;2022-08-19T01:07:35;20.40;99.90
4934;DHT22;2482;49.154;8.254;2022-08-19T01:10:08;20.30;99.90
4934;DHT22;2482;49.154;8.254;2022-08-19T01:12:39;20.30;99.90
4934;DHT22;2482;49.154;8.254;2022-08-19T01:15:09;20.20;99.90
4934;DHT22;2482;49.154;8.254;2022-08-19T01:17:41;20.00;99.90
4934;DHT22;2482;49.154;8.254;2022-08-19T01:20:14;20.10;99.90
4934;DHT22;2482;49.154;8.254;2022-08-19T01:22:47;20.30;99.90
4934;DHT22;2482;49.154;8.254;2022-08-19T01:25:18;20.30;99.90
4934;DHT22;2482;49.154;8.254;2022-08-19T01:27:49;20.30;99.90
4934;DHT22;2482;49.154;8.254;2022-08-19T01:30:28;20.40;99.90
4934;DHT22;2482;49.154;8.254;2022-08-19T01:32:58;20.60;99.90
4934;DHT22;2482;49.154;8.254;2022-08-19T01:35:28;20.60;99.90
4934;DHT22;2482;49.154;8.254;2022-08-19T01:38:02;20.60;99.90
4934;DHT22;2482;49.154;8.254;2022-08-19T01:40:37;20.50;99.90
4934;DHT22;2482;49.154;8.254;2022-08-19T01:43:06;20.30;99.90
4934;DHT22;2482;49.154;8.254;2022-08-19T01:45:34;20.30;99.90
4934;DHT22;2482;49.154;8.254;2022-08-19T01:48:02;20.40;99.90
4934;DHT22;2482;49.154;8.254;2022-08-19T01:50:33;20.30;99.90
4934;DHT22;2482;49.154;8.254;2022-08-19T01:53:02;20.50;99.90
4934;DHT22;2482;49.154;8.254;2022-08-19T01:55:36;20.60;99.90
4934;DHT22;2482;49.154;8.254;2022-08-19T01:58:12;20.80;99.90
4934;DHT22;2482;49.154;8.254;2022-08-19T02:00:46;20.80;99.90
4934;DHT22;2482;49.154;8.254;2022-08-19T02:03:14;20.80;99.90
4934;DHT22;2482;49.154;8.254;2022-08-19T02:05:43;20.80;99.90
4934;DHT22;2482;49.154;8.254;2022-08-19T02:08:10;20.80;99.90
4934;DHT22;2482;49.154;8.254;2022-08-19T02:10:40;20.90;99.90
4934;DHT22;2482;49.154;8.254;2022-08-19T02:13:09;20.90;99.90
4934;DHT22;2482;49.154;8.254;2022-08-19T02:15:38;20.90;99.90
4934;DHT22;2482;49.154;8.254;2022-08-19T02:18:05;20.90;99.90
4934;DHT22;2482;49.154;8.254;2022-08-19T02:20:34;20.80;99.90
4934;DHT22;2482;49.154;8.254;2022-08-19T02:23:02;20.70;99.90
4934;DHT22;2482;49.154;8.254;2022-08-19T02:25:29;20.80;99.90
4934;DHT22;2482;49.154;8.254;2022-08-19T02:27:56;20.80;99.90
4934;DHT22;2482;49.154;8.254;2022-08-19T02:30:23;20.90;99.90
4934;DHT22;2482;49.154;8.254;2022-08-19T02:32:52;20.80;99.90
4934;DHT22;2482;49.154;8.254;2022-08-19T02:35:20;20.60;99.90
4934;DHT22;2482;49.154;8.254;2022-08-19T02:37:47;20.50;99.90
4934;DHT22;2482;49.154;8.254;2022-08-19T02:40:33;20.40;99.90
4934;DHT22;2482;49.154;8.254;2022-08-19T02:43:06;20.20;99.90
4934;DHT22;2482;49.154;8.254;2022-08-19T02:45:35;20.20;99.90
4934;DHT22;2482;49.154;8.254;2022-08-19T02:48:07;20.00;99.90
4934;DHT22;2482;49.154;8.254;2022-08-19T02:50:48;20.10;99.90
4934;DHT22;2482;49.154;8.254;2022-08-19T02:53:19;20.10;99.90
4934;DHT22;2482;49.154;8.254;2022-08-19T02:55:49;20.20;99.90
4934;DHT22;2482;49.154;8.254;2022-08-19T02:58:16;20.10;99.90
4934;DHT22;2482;49.154;8.254;2022-08-19T03:00:50;20.10;99.90
4934;DHT22;2482;49.154;8.254;2022-08-19T03:03:19;20.10;99.90
4934;DHT22;2482;49.154;8.254;2022-08-19T03:05:46;19.90;99.90
4934;DHT22;2482;49.154;8.254;2022-08-19T03:08:23;19.90;99.90
4934;DHT22;2482;49.154;8.254;2022-08-19T03:10:52;19.80;99.90
4934;DHT22;2482;49.154;8.254;2022-08-19T03:13:20;19.80;99.90
4934;DHT22;2482;49.154;8.254;2022-08-19T03:15:48;19.80;99.90
4934;DHT22;2482;49.154;8.254;2022-08-19T03:18:16;19.70;99.90
4934;DHT22;2482;49.154;8.254;2022-08-19T03:20:46;19.90;99.90
4934;DHT22;2482;49.154;8.254;2022-08-19T03:23:15;19.90;99.90
4934;DHT22;2482;49.154;8.254;2022-08-19T03:25:48;20.00;99.90
4934;DHT22;2482;49.154;8.254;2022-08-19T03:28:36;20.20;99.90
4934;DHT22;2482;49.154;8.254;2022-08-19T03:31:12;20.30;99.90
4934;DHT22;2482;49.154;8.254;2022-08-19T03:34:00;20.30;99.90
4934;DHT22;2482;49.154;8.254;2022-08-19T03:36:29;20.30;99.90
4934;DHT22;2482;49.154;8.254;2022-08-19T03:38:58;20.30;99.90
4934;DHT22;2482;49.154;8.254;2022-08-19T03:41:30;20.30;99.90
4934;DHT22;2482;49.154;8.254;2022-08-19T03:44:11;20.30;99.90
4934;DHT22;2482;49.154;8.254;2022-08-19T03:46:46;20.30;99.90
4934;DHT22;2482;49.154;8.254;2022-08-19T03:49:18;20.30;99.90
4934;DHT22;2482;49.154;8.254;2022-08-19T03:51:47;20.30;99.90
4934;DHT22;2482;49.154;8.254;2022-08-19T03:54:19;20.30;99.90
4934;DHT22;2482;49.154;8.254;2022-08-19T03:56:48;20.40;99.90
4934;DHT22;2482;49.154;8.254;2022-08-19T03:59:26;20.30;99.90
4934;DHT22;2482;49.154;8.254;2022-08-19T04:01:57;20.30;99.90
4934;DHT22;2482;49.154;8.254;2022-08-19T04:04:26;20.20;99.90
4934;DHT22;2482;49.154;8.254;2022-08-19T04:06:55;20.10;99.90
4934;DHT22;2482;49.154;8.254;2022-08-19T04:09:23;20.10;99.90
4934;DHT22;2482;49.154;8.254;2022-08-19T04:11:56;20.10;99.90
4934;DHT22;2482;49.154;8.254;2022-08-19T04:14:27;20.10;99.90
4934;DHT22;2482;49.154;8.254;2022-08-19T04:16:58;20.00;99.90
4934;DHT22;2482;49.154;8.254;2022-08-19T04:19:28;19.90;99.90
4934;DHT22;2482;49.154;8.254;2022-08-19T04:21:56;19.80;99.90
4934;DHT22;2482;49.154;8.254;2022-08-19T04:24:23;19.80;99.90
4934;DHT22;2482;49.154;8.254;2022-08-19T04:26:52;19.70;99.90
4934;DHT22;2482;49.154;8.254;2022-08-19T04:29:24;19.80;99.90
4934;DHT22;2482;49.154;8.254;2022-08-19T04:31:55;19.90;99.90
4934;DHT22;2482;49.154;8.254;2022-08-19T04:34:25;19.90;99.90
4934;DHT22;2482;49.154;8.254;2022-08-19T04:36:54;19.70;99.90
4934;DHT22;2482;49.154;8.254;2022-08-19T04:39:29;19.50;99.90
4934;DHT22;2482;49.154;8.254;2022-08-19T04:42:17;19.40;99.90
4934;DHT22;2482;49.154;8.254;2022-08-19T04:45:08;19.40;99.90
4934;DHT22;2482;49.154;8.254;2022-08-19T04:47:41;19.40;99.90
4934;DHT22;2482;49.154;8.254;2022-08-19T04:50:23;19.40;99.90
4934;DHT22;2482;49.154;8.254;2022-08-19T04:52:52;19.40;99.90
4934;DHT22;2482;49.154;8.254;2022-08-19T04:55:20;19.60;99.90
4934;DHT22;2482;49.154;8.254;2022-08-19T04:57:46;19.80;99.90
4934;DHT22;2482;49.154;8.254;2022-08-19T05:00:14;20.00;99.90
4934;DHT22;2482;49.154;8.254;2022-08-19T05:02:42;20.00;99.90
4934;DHT22;2482;49.154;8.254;2022-08-19T05:05:09;19.90;99.90
4934;DHT22;2482;49.154;8.254;2022-08-19T05:07:36;20.00;99.90
4934;DHT22;2482;49.154;8.254;2022-08-19T05:10:05;20.10;99.90
4934;DHT22;2482;49.154;8.254;2022-08-19T05:12:33;20.30;99.90
4934;DHT22;2482;49.154;8.254;2022-08-19T05:15:01;20.30;99.90
4934;DHT22;2482;49.154;8.254;2022-08-19T05:17:29;20.40;99.90
4934;DHT22;2482;49.154;8.254;2022-08-19T05:20:03;20.60;99.90
4934;DHT22;2482;49.154;8.254;2022-08-19T05:22:50;20.70;99.90
4934;DHT22;2482;49.154;8.254;2022-08-19T05:25:19;20.70;99.90
4934;DHT22;2482;49.154;8.254;2022-08-19T05:27:47;20.80;99.90
4934;DHT22;2482;49.154;8.254;2022-08-19T05:30:16;20.80;99.90
4934;DHT22;2482;49.154;8.254;2022-08-19T05:32:44;20.80;99.90
4934;DHT22;2482;49.154;8.254;2022-08-19T05:35:11;20.90;99.90
4934;DHT22;2482;49.154;8.254;2022-08-19T05:37:39;21.00;99.90
4934;DHT22;2482;49.154;8.254;2022-08-19T05:40:09;21.00;99.90
4934;DHT22;2482;49.154;8.254;2022-08-19T05:42:37;21.10;99.90
4934;DHT22;2482;49.154;8.254;2022-08-19T05:45:05;21.20;99.90
4934;DHT22;2482;49.154;8.254;2022-08-19T05:47:32;21.20;99.90
4934;DHT22;2482;49.154;8.254;2022-08-19T05:49:59;21.30;99.90
4934;DHT22;2482;49.154;8.254;2022-08-19T05:52:30;21.30;99.90
4934;DHT22;2482;49.154;8.254;2022-08-19T05:54:59;21.40;99.90
4934;DHT22;2482;49.154;8.254;2022-08-19T05:57:26;21.40;99.90
4934;DHT22;2482;49.154;8.254;2022-08-19T05:59:55;21.50;99.90
4934;DHT22;2482;49.154;8.254;2022-08-19T06:02:26;21.50;99.90
4934;DHT22;2482;49.154;8.254;2022-08-19T06:04:53;21.60;99.90
4934;DHT22;2482;49.154;8.254;2022-08-19T06:07:20;21.70;99.90
4934;DHT22;2482;49.154;8.254;2022-08-19T06:09:48;21.70;99.90
4934;DHT22;2482;49.154;8.254;2022-08-19T06:12:30;21.70;99.90
4934;DHT22;2482;49.154;8.254;2022-08-19T06:15:07;21.80;99.90
4934;DHT22;2482;49.154;8.254;2022-08-19T06:17:36;21.90;99.90
4934;DHT22;2482;49.154;8.254;2022-08-19T06:20:05;21.90;99.90
4934;DHT22;2482;49.154;8.254;2022-08-19T06:22:46;22.00;99.90
4934;DHT22;2482;49.154;8.254;2022-08-19T06:25:19;22.00;99.90
4934;DHT22;2482;49.154;8.254;2022-08-19T06:27:46;22.00;99.90
4934;DHT22;2482;49.154;8.254;2022-08-19T06:30:33;22.10;99.90
4934;DHT22;2482;49.154;8.254;2022-08-19T06:33:00;22.10;99.90
4934;DHT22;2482;49.154;8.254;2022-08-19T06:35:27;22.10;99.90
4934;DHT22;2482;49.154;8.254;2022-08-19T06:37:56;22.20;99.90
4934;DHT22;2482;49.154;8.254;2022-08-19T06:40:23;22.30;99.90
4934;DHT22;2482;49.154;8.254;2022-08-19T06:42:50;22.30;99.90
4934;DHT22;2482;49.154;8.254;2022-08-19T06:45:22;22.30;99.90
4934;DHT22;2482;49.154;8.254;2022-08-19T06:47:51;22.50;99.90
4934;DHT22;2482;49.154;8.254;2022-08-19T06:50:23;22.60;99.90
4934;DHT22;2482;49.154;8.254;2022-08-19T06:52:51;22.60;99.90
4934;DHT22;2482;49.154;8.254;2022-08-19T06:55:20;22.70;99.90
4934;DHT22;2482;49.154;8.254;2022-08-19T06:57:47;22.80;99.90
4934;DHT22;2482;49.154;8.254;2022-08-19T07:00:15;22.90;99.90
4934;DHT22;2482;49.154;8.254;2022-08-19T07:02:43;22.90;99.90
4934;DHT22;2482;49.154;8.254;2022-08-19T07:05:21;22.90;99.90
4934;DHT22;2482;49.154;8.254;2022-08-19T07:07:48;22.90;99.90
4934;DHT22;2482;49.154;8.254;2022-08-19T07:10:16;23.00;99.90
4934;DHT22;2482;49.154;8.254;2022-08-19T07:12:44;23.10;99.90
4934;DHT22;2482;49.154;8.254;2022-08-19T07:15:11;23.30;99.90
4934;DHT22;2482;49.154;8.254;2022-08-19T07:17:39;23.40;99.90
4934;DHT22;2482;49.154;8.254;2022-08-19T07:20:08;23.30;99.90
4934;DHT22;2482;49.154;8.254;2022-08-19T07:22:37;23.30;99.90
4934;DHT22;2482;49.154;8.254;2022-08-19T07:25:08;23.30;99.90
4934;DHT22;2482;49.154;8.254;2022-08-19T07:27:35;23.40;99.90
4934;DHT22;2482;49.154;8.254;2022-08-19T07:30:07;23.50;99.90
4934;DHT22;2482;49.154;8.254;2022-08-19T07:32:38;23.70;99.90
4934;DHT22;2482;49.154;8.254;2022-08-19T07:35:07;23.70;99.90
4934;DHT22;2482;49.154;8.254;2022-08-19T07:37:35;23.80;99.90
4934;DHT22;2482;49.154;8.254;2022-08-19T07:40:05;23.90;99.90
4934;DHT22;2482;49.154;8.254;2022-08-19T07:42:33;24.10;99.90
4934;DHT22;2482;49.154;8.254;2022-08-19T07:45:00;24.20;99.90
4934;DHT22;2482;49.154;8.254;2022-08-19T07:47:27;24.30;99.90
4934;DHT22;2482;49.154;8.254;2022-08-19T07:50:15;24.50;99.90
4934;DHT22;2482;49.154;8.254;2022-08-19T07:52:45;24.50;99.90
4934;DHT22;2482;49.154;8.254;2022-08-19T07:55:16;24.40;99.90
4934;DHT22;2482;49.154;8.254;2022-08-19T07:58:09;24.50;99.90
4934;DHT22;2482;49.154;8.254;2022-08-19T08:00:38;24.50;99.90
4934;DHT22;2482;49.154;8.254;2022-08-19T08:03:06;24.20;99.90
4934;DHT22;2482;49.154;8.254;2022-08-19T08:05:33;24.20;99.90
4934;DHT22;2482;49.154;8.254;2022-08-19T08:08:18;24.40;99.90
4934;DHT22;2482;49.154;8.254;2022-08-19T08:11:14;24.40;99.90
4934;DHT22;2482;49.154;8.254;2022-08-19T08:13:46;24.40;99.90
4934;DHT22;2482;49.154;8.254;2022-08-19T08:16:33;24.40;99.90
4934;DHT22;2482;49.154;8.254;2022-08-19T08:19:06;24.40;99.90
4934;DHT22;2482;49.154;8.254;2022-08-19T08:21:51;24.30;99.90
4934;DHT22;2482;49.154;8.254;2022-08-19T08:24:23;24.20;99.90
4934;DHT22;2482;49.154;8.254;2022-08-19T08:26:55;24.30;99.90
4934;DHT22;2482;49.154;8.254;2022-08-19T08:29:23;24.30;99.90
4934;DHT22;2482;49.154;8.254;2022-08-19T08:32:01;24.20;99.90
4934;DHT22;2482;49.154;8.254;2022-08-19T08:34:28;24.20;99.90
4934;DHT22;2482;49.154;8.254;2022-08-19T08:36:55;24.30;99.90
4934;DHT22;2482;49.154;8.254;2022-08-19T08:39:22;24.30;99.90
4934;DHT22;2482;49.154;8.254;2022-08-19T08:41:58;24.20;99.90
4934;DHT22;2482;49.154;8.254;2022-08-19T08:44:50;24.20;99.90
4934;DHT22;2482;49.154;8.254;2022-08-19T08:47:29;24.00;99.90
4934;DHT22;2482;49.154;8.254;2022-08-19T08:50:15;24.00;99.90
4934;DHT22;2482;49.154;8.254;2022-08-19T08:53:10;24.10;99.90
4934;DHT22;2482;49.154;8.254;2022-08-19T08:55:55;24.20;99.90
4934;DHT22;2482;49.154;8.254;2022-08-19T09:01:21;24.70;99.90
4934;DHT22;2482;49.154;8.254;2022-08-19T09:03:49;24.90;99.90
4934;DHT22;2482;49.154;8.254;2022-08-19T09:09:37;25.30;99.90
4934;DHT22;2482;49.154;8.254;2022-08-19T09:12:16;25.30;99.90
4934;DHT22;2482;49.154;8.254;2022-08-19T09:15:00;25.40;99.90
4934;DHT22;2482;49.154;8.254;2022-08-19T09:17:32;25.30;99.90
4934;DHT22;2482;49.154;8.254;2022-08-19T09:20:22;25.60;99.90
4934;DHT22;2482;49.154;8.254;2022-08-19T09:22:51;25.90;99.90
4934;DHT22;2482;49.154;8.254;2022-08-19T09:25:21;26.10;99.90
4934;DHT22;2482;49.154;8.254;2022-08-19T09:27:53;26.10;99.90
4934;DHT22;2482;49.154;8.254;2022-08-19T09:30:31;26.50;99.90
4934;DHT22;2482;49.154;8.254;2022-08-19T09:33:01;26.40;99.90
4934;DHT22;2482;49.154;8.254;2022-08-19T09:35:29;26.30;99.90
4934;DHT22;2482;49.154;8.254;2022-08-19T09:37:57;26.00;99.90
4934;DHT22;2482;49.154;8.254;2022-08-19T09:40:27;26.00;99.90
4934;DHT22;2482;49.154;8.254;2022-08-19T09:42:57;26.00;99.90
4934;DHT22;2482;49.154;8.254;2022-08-19T09:45:26;26.10;99.90
4934;DHT22;2482;49.154;8.254;2022-08-19T09:47:54;26.20;99.90
4934;DHT22;2482;49.154;8.254;2022-08-19T09:50:22;26.50;99.90
4934;DHT22;2482;49.154;8.254;2022-08-19T09:52:50;26.60;99.90
4934;DHT22;2482;49.154;8.254;2022-08-19T09:55:23;26.70;99.90
4934;DHT22;2482;49.154;8.254;2022-08-19T09:58:01;27.20;99.90
4934;DHT22;2482;49.154;8.254;2022-08-19T10:00:29;27.40;99.90
4934;DHT22;2482;49.154;8.254;2022-08-19T10:02:57;27.50;99.90
4934;DHT22;2482;49.154;8.254;2022-08-19T10:05:24;27.40;99.90
4934;DHT22;2482;49.154;8.254;2022-08-19T10:08:22;27.10;99.90
4934;DHT22;2482;49.154;8.254;2022-08-19T10:10:53;27.70;99.90
4934;DHT22;2482;49.154;8.254;2022-08-19T10:13:24;28.20;99.90
4934;DHT22;2482;49.154;8.254;2022-08-19T10:15:54;27.50;99.90
4934;DHT22;2482;49.154;8.254;2022-08-19T10:18:25;27.20;99.90
4934;DHT22;2482;49.154;8.254;2022-08-19T10:21:01;26.80;99.90
4934;DHT22;2482;49.154;8.254;2022-08-19T10:23:38;26.70;99.90
4934;DHT22;2482;49.154;8.254;2022-08-19T10:26:16;26.90;99.90
4934;DHT22;2482;49.154;8.254;2022-08-19T10:28:45;26.90;99.90
4934;DHT22;2482;49.154;8.254;2022-08-19T10:31:27;27.10;99.90
4934;DHT22;2482;49.154;8.254;2022-08-19T10:34:15;27.40;99.90
4934;DHT22;2482;49.154;8.254;2022-08-19T10:36:54;27.60;99.90
4934;DHT22;2482;49.154;8.254;2022-08-19T10:39:29;27.50;99.90
4934;DHT22;2482;49.154;8.254;2022-08-19T10:42:07;27.40;99.90
4934;DHT22;2482;49.154;8.254;2022-08-19T10:44:37;26.90;99.90
4934;DHT22;2482;49.154;8.254;2022-08-19T10:47:04;26.90;99.90
4934;DHT22;2482;49.154;8.254;2022-08-19T10:49:52;27.00;99.90
4934;DHT22;2482;49.154;8.254;2022-08-19T10:52:49;26.80;99.90
4934;DHT22;2482;49.154;8.254;2022-08-19T10:55:19;26.90;99.90
4934;DHT22;2482;49.154;8.254;2022-08-19T10:58:23;27.10;99.90
4934;DHT22;2482;49.154;8.254;2022-08-19T11:00:53;26.90;99.90
4934;DHT22;2482;49.154;8.254;2022-08-19T11:03:24;26.90;99.90
4934;DHT22;2482;49.154;8.254;2022-08-19T11:06:05;26.80;99.90
4934;DHT22;2482;49.154;8.254;2022-08-19T11:08:34;26.90;99.90
4934;DHT22;2482;49.154;8.254;2022-08-19T11:11:06;27.20;99.90
4934;DHT22;2482;49.154;8.254;2022-08-19T11:13:37;27.90;99.90
4934;DHT22;2482;49.154;8.254;2022-08-19T11:16:06;28.30;99.90
4934;DHT22;2482;49.154;8.254;2022-08-19T11:18:37;28.50;99.90
4934;DHT22;2482;49.154;8.254;2022-08-19T11:21:11;28.50;99.90
4934;DHT22;2482;49.154;8.254;2022-08-19T11:23:41;28.50;99.90
4934;DHT22;2482;49.154;8.254;2022-08-19T11:26:08;28.40;99.90
4934;DHT22;2482;49.154;8.254;2022-08-19T11:28:35;27.70;99.90
4934;DHT22;2482;49.154;8.254;2022-08-19T11:31:03;28.30;99.90
4934;DHT22;2482;49.154;8.254;2022-08-19T11:33:30;28.80;99.90
4934;DHT22;2482;49.154;8.254;2022-08-19T11:35:59;29.10;99.90
4934;DHT22;2482;49.154;8.254;2022-08-19T11:38:28;28.80;99.90
4934;DHT22;2482;49.154;8.254;2022-08-19T11:41:01;28.60;99.90
4934;DHT22;2482;49.154;8.254;2022-08-19T11:43:30;28.80;99.90
4934;DHT22;2482;49.154;8.254;2022-08-19T11:46:11;28.60;99.90
4934;DHT22;2482;49.154;8.254;2022-08-19T11:48:39;29.10;99.90
4934;DHT22;2482;49.154;8.254;2022-08-19T11:51:10;29.60;99.90
4934;DHT22;2482;49.154;8.254;2022-08-19T11:53:39;29.90;99.90
4934;DHT22;2482;49.154;8.254;2022-08-19T11:56:07;29.90;99.90
4934;DHT22;2482;49.154;8.254;2022-08-19T11:58:35;29.80;99.90
4934;DHT22;2482;49.154;8.254;2022-08-19T12:01:06;29.40;99.90
4934;DHT22;2482;49.154;8.254;2022-08-19T12:03:35;29.00;99.90
4934;DHT22;2482;49.154;8.254;2022-08-19T12:06:05;29.00;99.90
4934;DHT22;2482;49.154;8.254;2022-08-19T12:08:36;29.10;99.90
4934;DHT22;2482;49.154;8.254;2022-08-19T12:11:04;29.50;99.90
4934;DHT22;2482;49.154;8.254;2022-08-19T12:13:34;29.70;99.90
4934;DHT22;2482;49.154;8.254;2022-08-19T12:16:10;30.20;99.90
4934;DHT22;2482;49.154;8.254;2022-08-19T12:18:40;30.30;99.90
4934;DHT22;2482;49.154;8.254;2022-08-19T12:21:10;30.20;99.90
4934;DHT22;2482;49.154;8.254;2022-08-19T12:23:39;29.90;99.90
4934;DHT22;2482;49.154;8.254;2022-08-19T12:26:10;30.00;99.90
4934;DHT22;2482;49.154;8.254;2022-08-19T12:28:38;30.10;99.90
4934;DHT22;2482;49.154;8.254;2022-08-19T12:31:05;30.20;99.90
4934;DHT22;2482;49.154;8.254;2022-08-19T12:33:32;30.20;99.90
4934;DHT22;2482;49.154;8.254;2022-08-19T12:36:02;29.70;99.90
4934;DHT22;2482;49.154;8.254;2022-08-19T12:38:32;29.50;99.90
4934;DHT22;2482;49.154;8.254;2022-08-19T12:41:01;29.30;99.90
4934;DHT22;2482;49.154;8.254;2022-08-19T12:43:33;28.90;99.90
4934;DHT22;2482;49.154;8.254;2022-08-19T12:46:05;29.10;99.80
4934;DHT22;2482;49.154;8.254;2022-08-19T12:48:36;29.70;99.20
4934;DHT22;2482;49.154;8.254;2022-08-19T12:51:06;30.20;98.10
4934;DHT22;2482;49.154;8.254;2022-08-19T12:53:36;30.60;95.60
4934;DHT22;2482;49.154;8.254;2022-08-19T12:56:06;31.10;95.70
4934;DHT22;2482;49.154;8.254;2022-08-19T12:58:39;31.00;95.30
4934;DHT22;2482;49.154;8.254;2022-08-19T13:01:15;30.60;95.10
4934;DHT22;2482;49.154;8.254;2022-08-19T13:03:47;30.70;95.30
4934;DHT22;2482;49.154;8.254;2022-08-19T13:06:16;30.70;94.50
4934;DHT22;2482;49.154;8.254;2022-08-19T13:08:45;30.90;95.00
4934;DHT22;2482;49.154;8.254;2022-08-19T13:11:16;31.20;95.40
4934;DHT22;2482;49.154;8.254;2022-08-19T13:13:46;31.00;94.50
4934;DHT22;2482;49.154;8.254;2022-08-19T13:16:15;30.90;94.60
4934;DHT22;2482;49.154;8.254;2022-08-19T13:18:44;30.70;94.20
4934;DHT22;2482;49.154;8.254;2022-08-19T13:21:19;30.90;94.00
4934;DHT22;2482;49.154;8.254;2022-08-19T13:23:51;30.80;94.10
4934;DHT22;2482;49.154;8.254;2022-08-19T13:26:19;30.70;94.30
4934;DHT22;2482;49.154;8.254;2022-08-19T13:28:46;30.60;93.90
4934;DHT22;2482;49.154;8.254;2022-08-19T13:31:35;30.20;94.30
4934;DHT22;2482;49.154;8.254;2022-08-19T13:34:34;29.70;94.00
4934;DHT22;2482;49.154;8.254;2022-08-19T13:37:03;29.20;94.80
4934;DHT22;2482;49.154;8.254;2022-08-19T13:39:34;28.80;95.20
4934;DHT22;2482;49.154;8.254;2022-08-19T13:42:02;28.90;95.90
4934;DHT22;2482;49.154;8.254;2022-08-19T13:44:31;29.00;95.00
4934;DHT22;2482;49.154;8.254;2022-08-19T13:47:03;29.10;95.10
4934;DHT22;2482;49.154;8.254;2022-08-19T13:49:34;29.10;95.00
4934;DHT22;2482;49.154;8.254;2022-08-19T13:52:04;29.20;95.30
4934;DHT22;2482;49.154;8.254;2022-08-19T13:54:32;29.10;94.70
4934;DHT22;2482;49.154;8.254;2022-08-19T13:56:59;29.10;95.60
4934;DHT22;2482;49.154;8.254;2022-08-19T13:59:26;29.20;95.40
4934;DHT22;2482;49.154;8.254;2022-08-19T14:01:56;29.00;95.50
4934;DHT22;2482;49.154;8.254;2022-08-19T14:04:24;29.00;95.20
4934;DHT22;2482;49.154;8.254;2022-08-19T14:06:51;28.90;95.10
4934;DHT22;2482;49.154;8.254;2022-08-19T14:09:18;28.90;95.90
4934;DHT22;2482;49.154;8.254;2022-08-19T14:11:45;28.90;96.00
4934;DHT22;2482;49.154;8.254;2022-08-19T14:14:13;28.90;95.60
4934;DHT22;2482;49.154;8.254;2022-08-19T14:16:42;28.80;95.10
4934;DHT22;2482;49.154;8.254;2022-08-19T14:19:09;28.70;96.00
4934;DHT22;2482;49.154;8.254;2022-08-19T14:21:36;28.70;96.20
4934;DHT22;2482;49.154;8.254;2022-08-19T14:24:07;28.70;95.50
4934;DHT22;2482;49.154;8.254;2022-08-19T14:26:34;28.60;95.40
4934;DHT22;2482;49.154;8.254;2022-08-19T14:29:01;28.60;95.60
4934;DHT22;2482;49.154;8.254;2022-08-19T14:31:29;28.70;95.60
4934;DHT22;2482;49.154;8.254;2022-08-19T14:33:56;28.70;96.50
4934;DHT22;2482;49.154;8.254;2022-08-19T14:36:23;28.80;95.90
4934;DHT22;2482;49.154;8.254;2022-08-19T14:38:51;28.80;96.40
4934;DHT22;2482;49.154;8.254;2022-08-19T14:41:21;28.80;97.80
4934;DHT22;2482;49.154;8.254;2022-08-19T14:43:51;28.80;96.60
4934;DHT22;2482;49.154;8.254;2022-08-19T14:46:24;28.80;96.60
4934;DHT22;2482;49.154;8.254;2022-08-19T14:48:55;28.90;96.30
4934;DHT22;2482;49.154;8.254;2022-08-19T14:51:25;28.90;95.60
4934;DHT22;2482;49.154;8.254;2022-08-19T14:53:56;28.90;95.20
4934;DHT22;2482;49.154;8.254;2022-08-19T14:56:27;29.00;95.10
4934;DHT22;2482;49.154;8.254;2022-08-19T14:58:55;29.10;94.50
4934;DHT22;2482;49.154;8.254;2022-08-19T15:01:23;29.10;94.90
4934;DHT22;2482;49.154;8.254;2022-08-19T15:03:51;29.20;94.70
4934;DHT22;2482;49.154;8.254;2022-08-19T15:06:25;29.20;94.60
4934;DHT22;2482;49.154;8.254;2022-08-19T15:08:53;29.00;94.80
4934;DHT22;2482;49.154;8.254;2022-08-19T15:11:22;29.00;95.40
4934;DHT22;2482;49.154;8.254;2022-08-19T15:13:51;29.00;95.70
4934;DHT22;2482;49.154;8.254;2022-08-19T15:16:20;28.90;95.60
4934;DHT22;2482;49.154;8.254;2022-08-19T15:18:49;28.90;95.20
4934;DHT22;2482;49.154;8.254;2022-08-19T15:21:18;29.00;95.00
4934;DHT22;2482;49.154;8.254;2022-08-19T15:23:55;29.10;95.30
4934;DHT22;2482;49.154;8.254;2022-08-19T15:26:23;29.10;95.60
4934;DHT22;2482;49.154;8.254;2022-08-19T15:28:51;29.20;94.60
4934;DHT22;2482;49.154;8.254;2022-08-19T15:31:20;29.20;94.90
4934;DHT22;2482;49.154;8.254;2022-08-19T15:33:56;29.30;94.00
4934;DHT22;2482;49.154;8.254;2022-08-19T15:36:25;29.30;94.00
4934;DHT22;2482;49.154;8.254;2022-08-19T15:38:53;29.30;94.00
4934;DHT22;2482;49.154;8.254;2022-08-19T15:41:24;29.30;94.10
4934;DHT22;2482;49.154;8.254;2022-08-19T15:46:27;29.20;94.50
4934;DHT22;2482;49.154;8.254;2022-08-19T15:48:57;29.30;94.10
4934;DHT22;2482;49.154;8.254;2022-08-19T15:51:27;29.20;94.30
4934;DHT22;2482;49.154;8.254;2022-08-19T15:53:58;29.10;94.60
4934;DHT22;2482;49.154;8.254;2022-08-19T15:56:26;28.90;95.10
4934;DHT22;2482;49.154;8.254;2022-08-19T15:59:25;28.80;94.20
4934;DHT22;2482;49.154;8.254;2022-08-19T16:02:13;28.90;94.50
4934;DHT22;2482;49.154;8.254;2022-08-19T16:05:00;29.10;94.10
4934;DHT22;2482;49.154;8.254;2022-08-19T16:07:57;29.10;94.30
4934;DHT22;2482;49.154;8.254;2022-08-19T16:10:24;29.00;94.10
4934;DHT22;2482;49.154;8.254;2022-08-19T16:12:55;29.10;94.00
4934;DHT22;2482;49.154;8.254;2022-08-19T16:15:28;29.20;93.80
4934;DHT22;2482;49.154;8.254;2022-08-19T16:17:56;29.30;93.90
4934;DHT22;2482;49.154;8.254;2022-08-19T16:20:26;29.30;94.10
4934;DHT22;2482;49.154;8.254;2022-08-19T16:22:55;29.30;93.80
4934;DHT22;2482;49.154;8.254;2022-08-19T16:25:24;29.40;93.60
4934;DHT22;2482;49.154;8.254;2022-08-19T16:27:55;29.40;93.30
4934;DHT22;2482;49.154;8.254;2022-08-19T16:30:38;29.30;93.70
4934;DHT22;2482;49.154;8.254;2022-08-19T16:33:07;29.30;93.60
4934;DHT22;2482;49.154;8.254;2022-08-19T16:35:35;29.30;93.90
4934;DHT22;2482;49.154;8.254;2022-08-19T16:38:02;29.40;93.90
4934;DHT22;2482;49.154;8.254;2022-08-19T16:40:29;29.30;94.40